Time;durP1;ratioP1;P1;durP2;ratioP2;P2;SDS_P1;SDS_P2;PMS_P1;PMS_P2;Temp;Humidity;BMP_temperature;BMP_pressure;BME280_temperature;BME280_humidity;BME280_pressure;Samples;Min_cycle;Max_cycle;Signal;HPM_P1;HPM_P2
2022/09/17 00:02:54;;;;;;;2.72;1.75;;;;;;;;;;6276737;28;20060;-66
2022/09/17 00:06:01;;;;;;;3.58;1.50;;;;;;;;;;6283465;28;20053;-66
2022/09/17 00:09:04;;;;;;;5.93;1.70;;;;;;;;;;6282388;28;20057;-65
2022/09/17 00:12:06;;;;;;;6.43;1.60;;;;;;;;;;6281065;28;20098;-66
2022/09/17 00:15:08;;;;;;;8.65;1.35;;;;;;;;;;6276360;28;20053;-65
2022/09/17 00:18:11;;;;;;;5.15;1.00;;;;;;;;;;6275644;28;20098;-67
2022/09/17 00:21:17;;;;;;;3.42;1.02;;;;;;;;;;6280524;28;20075;-66
2022/09/17 00:24:19;;;;;;;2.78;1.20;;;;;;;;;;6280962;28;20243;-65
2022/09/17 00:27:21;;;;;;;1.88;1.08;;;;;;;;;;6278864;28;20078;-65
2022/09/17 00:30:23;;;;;;;2.65;1.23;;;;;;;;;;6278199;28;20068;-64
2022/09/17 00:33:24;;;;;;;5.90;1.20;;;;;;;;;;6279626;28;20237;-65
2022/09/17 00:36:27;;;;;;;2.78;1.20;;;;;;;;;;6277120;28;20061;-64
2022/09/17 00:39:29;;;;;;;;;;;;;;;;;;6278745;28;20053;-67
2022/09/17 00:42:30;;;;;;;8.65;3.90;;;;;;;;;;6276700;28;19936;-67
2022/09/17 00:45:32;;;;;;;13.82;5.05;;;;;;;;;;6281446;28;20094;-67
2022/09/17 00:48:34;;;;;;;10.25;5.63;;;;;;;;;;6281202;28;20056;-65
2022/09/17 00:51:40;;;;;;;12.30;5.25;;;;;;;;;;6278126;28;20143;-67
2022/09/17 00:54:50;;;;;;;10.68;5.88;;;;;;;;;;6278776;28;20218;-66
2022/09/17 00:57:54;;;;;;;12.45;5.47;;;;;;;;;;6277517;28;20050;-67
2022/09/17 01:00:55;;;;;;;10.93;5.25;;;;;;;;;;6276949;28;20052;-64
2022/09/17 01:03:57;;;;;;;12.60;5.72;;;;;;;;;;6277899;28;20053;-68
2022/09/17 01:07:06;;;;;;;11.65;6.35;;;;;;;;;;6281494;28;20044;-65
2022/09/17 01:10:16;;;;;;;11.65;6.88;;;;;;;;;;6276137;28;20048;-67
2022/09/17 01:13:28;;;;;;;50.10;31.20;;;;;;;;;;6276072;28;20036;-67
2022/09/17 01:16:36;;;;;;;28.17;18.75;;;;;;;;;;6276134;28;20060;-66
2022/09/17 01:20:08;;;;;;;15.80;6.95;;;;;;;;;;6276194;28;20049;-64
2022/09/17 01:23:27;;;;;;;6.05;4.13;;;;;;;;;;6280324;28;20140;-65
2022/09/17 01:26:51;;;;;;;6.45;4.13;;;;;;;;;;6279296;28;20049;-66
2022/09/17 01:30:03;;;;;;;7.68;5.03;;;;;;;;;;6281071;28;20060;-63
2022/09/17 01:33:10;;;;;;;6.22;4.20;;;;;;;;;;6275272;28;20228;-65
2022/09/17 01:36:22;;;;;;;12.15;4.88;;;;;;;;;;6277403;28;20213;-65
2022/09/17 01:39:30;;;;;;;6.63;4.60;;;;;;;;;;6252303;28;20044;-65
2022/09/17 01:42:37;;;;;;;8.98;4.25;;;;;;;;;;6254741;28;20135;-63
2022/09/17 01:45:42;;;;;;;8.85;4.80;;;;;;;;;;6250046;28;20091;-65
2022/09/17 01:48:47;;;;;;;6.45;4.80;;;;;;;;;;6252733;28;20383;-63
2022/09/17 01:51:50;;;;;;;11.70;4.50;;;;;;;;;;6265440;28;20057;-66
2022/09/17 01:54:56;;;;;;;12.23;4.32;;;;;;;;;;6264128;28;20051;-66
2022/09/17 01:58:01;;;;;;;6.45;3.50;;;;;;;;;;6278212;28;20045;-63
2022/09/17 02:01:05;;;;;;;5.82;3.63;;;;;;;;;;6276427;28;20056;-65
2022/09/17 02:04:11;;;;;;;9.43;3.22;;;;;;;;;;6274604;28;20051;-69
2022/09/17 02:07:16;;;;;;;10.50;3.20;;;;;;;;;;6274242;28;20044;-64
2022/09/17 02:10:19;;;;;;;6.28;3.10;;;;;;;;;;6275827;28;20084;-66
2022/09/17 02:13:24;;;;;;;5.85;2.40;;;;;;;;;;6282312;28;20091;-64
2022/09/17 02:16:27;;;;;;;8.80;2.92;;;;;;;;;;6279769;28;20134;-64
2022/09/17 02:19:32;;;;;;;5.32;2.30;;;;;;;;;;6280486;28;20053;-68
2022/09/17 02:22:38;;;;;;;7.25;2.30;;;;;;;;;;6283204;28;20056;-63
2022/09/17 02:25:47;;;;;;;3.10;2.15;;;;;;;;;;6287279;28;20071;-64
2022/09/17 02:28:51;;;;;;;5.72;2.42;;;;;;;;;;6281247;28;20052;-65
2022/09/17 02:31:53;;;;;;;4.18;2.60;;;;;;;;;;6280119;28;20146;-65
2022/09/17 02:34:56;;;;;;;6.90;2.30;;;;;;;;;;6279392;28;20049;-68
2022/09/17 02:37:58;;;;;;;4.15;2.72;;;;;;;;;;6282606;28;20056;-65
2022/09/17 02:41:06;;;;;;;4.57;2.53;;;;;;;;;;6282616;28;20072;-64
2022/09/17 02:44:13;;;;;;;4.47;2.60;;;;;;;;;;6282301;28;20394;-63
2022/09/17 02:47:34;;;;;;;4.32;2.28;;;;;;;;;;6279033;28;20362;-63
2022/09/17 02:50:51;;;;;;;4.88;2.00;;;;;;;;;;6275193;28;20115;-64
2022/09/17 02:53:58;;;;;;;2.67;1.90;;;;;;;;;;6275580;28;20055;-65
2022/09/17 02:57:08;;;;;;;2.97;2.05;;;;;;;;;;6270918;28;20162;-63
2022/09/17 03:00:14;;;;;;;4.72;2.22;;;;;;;;;;6277617;28;20060;-68
2022/09/17 03:03:20;;;;;;;4.35;1.73;;;;;;;;;;6276169;28;20052;-66
2022/09/17 03:06:23;;;;;;;2.95;1.77;;;;;;;;;;6272213;28;20103;-65
2022/09/17 03:09:25;;;;;;;3.95;2.10;;;;;;;;;;6272615;28;20053;-67
2022/09/17 03:12:27;;;;;;;2.33;2.00;;;;;;;;;;6275178;28;20061;-64
2022/09/17 03:15:28;;;;;;;3.53;1.90;;;;;;;;;;6278832;28;20056;-68
2022/09/17 03:18:30;;;;;;;6.72;1.95;;;;;;;;;;6275747;28;20091;-67
2022/09/17 03:21:33;;;;;;;4.53;2.05;;;;;;;;;;6279735;28;20052;-66
2022/09/17 03:24:34;;;;;;;3.47;2.20;;;;;;;;;;6276210;28;20053;-64
2022/09/17 03:27:36;;;;;;;3.53;2.08;;;;;;;;;;6280072;28;20057;-64
2022/09/17 03:30:38;;;;;;;3.65;2.60;;;;;;;;;;6278381;28;20041;-66
2022/09/17 03:33:39;;;;;;;2.65;2.20;;;;;;;;;;6277973;28;20049;-64
2022/09/17 03:36:42;;;;;;;4.63;1.98;;;;;;;;;;6276085;28;20056;-63
2022/09/17 03:39:44;;;;;;;3.25;2.05;;;;;;;;;;6275616;28;20106;-64
2022/09/17 03:42:46;;;;;;;4.68;2.00;;;;;;;;;;6276060;28;20267;-66
2022/09/17 03:45:48;;;;;;;1.23;0.88;;;;;;;;;;6275396;28;20049;-64
2022/09/17 03:48:49;;;;;;;1.30;0.88;;;;;;;;;;6272687;28;20053;-64
2022/09/17 03:51:52;;;;;;;2.90;0.80;;;;;;;;;;6274150;28;20167;-64
2022/09/17 03:54:54;;;;;;;2.40;1.00;;;;;;;;;;6271613;28;20053;-65
2022/09/17 03:57:56;;;;;;;2.20;0.90;;;;;;;;;;6274097;28;20333;-65
2022/09/17 04:00:58;;;;;;;4.82;1.50;;;;;;;;;;6275297;28;20078;-66
2022/09/17 04:03:59;;;;;;;1.10;0.80;;;;;;;;;;6273460;28;20053;-64
2022/09/17 04:07:02;;;;;;;1.00;0.85;;;;;;;;;;6273647;28;20335;-64
2022/09/17 04:10:05;;;;;;;2.72;1.00;;;;;;;;;;6271968;28;20092;-64
2022/09/17 04:13:07;;;;;;;1.80;0.77;;;;;;;;;;6275752;28;20052;-65
2022/09/17 04:16:08;;;;;;;1.92;0.90;;;;;;;;;;6271927;28;20057;-64
2022/09/17 04:19:10;;;;;;;2.45;0.80;;;;;;;;;;6273126;28;20044;-65
2022/09/17 04:22:13;;;;;;;1.13;0.82;;;;;;;;;;6277200;28;20105;-66
2022/09/17 04:25:15;;;;;;;1.60;0.80;;;;;;;;;;6279713;28;20056;-64
2022/09/17 04:28:17;;;;;;;2.25;0.80;;;;;;;;;;6284160;28;20204;-64
2022/09/17 04:31:18;;;;;;;1.67;0.50;;;;;;;;;;6282960;28;20095;-64
2022/09/17 04:34:20;;;;;;;3.38;0.60;;;;;;;;;;6284046;28;20577;-64
2022/09/17 04:37:24;;;;;;;1.88;0.60;;;;;;;;;;6277350;28;20071;-65
2022/09/17 04:40:26;;;;;;;2.90;0.50;;;;;;;;;;6278844;28;20044;-64
2022/09/17 04:43:28;;;;;;;2.05;0.85;;;;;;;;;;6279182;28;20651;-64
2022/09/17 04:46:30;;;;;;;2.55;0.50;;;;;;;;;;6277539;28;20523;-64
2022/09/17 04:49:31;;;;;;;0.95;0.43;;;;;;;;;;6275513;28;20550;-63
2022/09/17 04:52:34;;;;;;;2.10;0.60;;;;;;;;;;6276126;28;20063;-64
2022/09/17 04:55:36;;;;;;;0.90;0.47;;;;;;;;;;6279484;28;20097;-64
2022/09/17 04:58:38;;;;;;;1.38;0.70;;;;;;;;;;6276246;28;20057;-64
2022/09/17 05:01:40;;;;;;;1.73;0.60;;;;;;;;;;6281766;28;20240;-63
2022/09/17 05:04:42;;;;;;;2.25;0.70;;;;;;;;;;6281179;28;20053;-63
2022/09/17 05:07:45;;;;;;;1.30;0.50;;;;;;;;;;6279528;28;20053;-65
2022/09/17 05:10:47;;;;;;;;;;;;;;;;;;6279827;28;20056;-69
2022/09/17 05:13:49;;;;;;;0.82;0.45;;;;;;;;;;6277987;28;19924;-64
2022/09/17 05:16:50;;;;;;;2.95;0.57;;;;;;;;;;6277236;28;20332;-65
2022/09/17 05:19:52;;;;;;;1.05;0.57;;;;;;;;;;6277973;28;20049;-64
2022/09/17 05:22:55;;;;;;;0.80;0.57;;;;;;;;;;6279550;28;20116;-65
2022/09/17 05:25:58;;;;;;;1.17;0.50;;;;;;;;;;6277327;28;20056;-68
2022/09/17 05:29:00;;;;;;;0.88;0.50;;;;;;;;;;6276784;28;20069;-70
2022/09/17 05:32:02;;;;;;;1.70;0.60;;;;;;;;;;6277913;28;20048;-64
2022/09/17 05:35:05;;;;;;;1.25;0.50;;;;;;;;;;6275274;28;20052;-68
2022/09/17 05:38:08;;;;;;;2.22;0.60;;;;;;;;;;6276599;28;20090;-65
2022/09/17 05:41:09;;;;;;;0.52;0.40;;;;;;;;;;6274040;28;20084;-64
2022/09/17 05:44:11;;;;;;;1.48;0.52;;;;;;;;;;6277643;28;20053;-64
2022/09/17 05:47:12;;;;;;;0.80;0.40;;;;;;;;;;6277233;28;20045;-64
2022/09/17 05:50:14;;;;;;;1.00;0.50;;;;;;;;;;6277729;28;20061;-64
2022/09/17 05:53:18;;;;;;;0.30;0.30;;;;;;;;;;6278057;28;20284;-64
2022/09/17 05:56:20;;;;;;;1.85;0.90;;;;;;;;;;6275881;28;20179;-64
2022/09/17 05:59:22;;;;;;;0.93;0.32;;;;;;;;;;6277840;28;20045;-64
2022/09/17 06:02:24;;;;;;;0.80;0.60;;;;;;;;;;6276194;28;20049;-66
2022/09/17 06:05:25;;;;;;;0.95;0.52;;;;;;;;;;6277324;28;20060;-65
2022/09/17 06:08:29;;;;;;;0.68;0.40;;;;;;;;;;6278414;28;20351;-65
2022/09/17 06:11:31;;;;;;;1.00;0.50;;;;;;;;;;6275553;28;20061;-65
2022/09/17 06:14:33;;;;;;;1.00;0.22;;;;;;;;;;6277459;28;20041;-63
2022/09/17 06:17:34;;;;;;;5.65;0.80;;;;;;;;;;6274883;28;20734;-66
2022/09/17 06:20:36;;;;;;;0.70;0.40;;;;;;;;;;6276663;28;20049;-65
2022/09/17 06:23:42;;;;;;;1.98;0.50;;;;;;;;;;6274668;28;20267;-65
2022/09/17 06:26:44;;;;;;;1.05;0.38;;;;;;;;;;6277799;28;20057;-66
2022/09/17 06:29:45;;;;;;;0.88;0.40;;;;;;;;;;6273791;28;20045;-66
2022/09/17 06:32:47;;;;;;;0.50;0.40;;;;;;;;;;6273422;28;20044;-64
2022/09/17 06:35:49;;;;;;;0.93;0.65;;;;;;;;;;6276446;28;20345;-65
2022/09/17 06:38:52;;;;;;;2.22;0.50;;;;;;;;;;6274263;28;20041;-64
2022/09/17 06:41:53;;;;;;;2.33;0.80;;;;;;;;;;6277227;28;20064;-65
2022/09/17 06:44:57;;;;;;;1.85;0.60;;;;;;;;;;6274508;28;20049;-65
2022/09/17 06:47:58;;;;;;;2.65;0.60;;;;;;;;;;6278569;28;20107;-64
2022/09/17 06:51:02;;;;;;;0.93;0.50;;;;;;;;;;6275288;28;20098;-64
2022/09/17 06:54:05;;;;;;;1.30;0.68;;;;;;;;;;6274129;28;20056;-67
2022/09/17 06:57:07;;;;;;;1.15;0.60;;;;;;;;;;6274601;28;20049;-64
2022/09/17 07:00:10;;;;;;;1.83;0.90;;;;;;;;;;6274085;28;20048;-65
2022/09/17 07:03:12;;;;;;;1.25;0.57;;;;;;;;;;6274944;28;20059;-63
2022/09/17 07:06:14;;;;;;;0.77;0.77;;;;;;;;;;6274712;28;20370;-64
2022/09/17 07:09:17;;;;;;;3.22;0.50;;;;;;;;;;6273107;28;20279;-64
2022/09/17 07:12:18;;;;;;;1.33;0.63;;;;;;;;;;6275656;28;20335;-63
2022/09/17 07:15:20;;;;;;;2.60;0.70;;;;;;;;;;6273649;28;20118;-62
2022/09/17 07:18:22;;;;;;;2.20;0.55;;;;;;;;;;6273099;28;20057;-65
2022/09/17 07:21:24;;;;;;;0.80;0.52;;;;;;;;;;6276860;28;20332;-64
2022/09/17 07:24:27;;;;;;;8.30;0.80;;;;;;;;;;6274633;28;20063;-66
2022/09/17 07:27:29;;;;;;;7.40;1.27;;;;;;;;;;6274570;28;20048;-65
2022/09/17 07:30:31;;;;;;;9.83;0.67;;;;;;;;;;6271559;28;20049;-66
2022/09/17 07:33:34;;;;;;;10.50;0.60;;;;;;;;;;6275325;28;20478;-63
2022/09/17 07:36:36;;;;;;;4.00;0.73;;;;;;;;;;6273242;28;20075;-70
2022/09/17 07:39:39;;;;;;;7.72;0.70;;;;;;;;;;6276515;28;20123;-69
2022/09/17 07:42:41;;;;;;;7.00;0.60;;;;;;;;;;6273943;28;20055;-65
2022/09/17 07:45:43;;;;;;;10.50;0.68;;;;;;;;;;6274429;28;20270;-65
2022/09/17 07:48:45;;;;;;;7.28;0.75;;;;;;;;;;6277789;28;20099;-65
2022/09/17 07:51:46;;;;;;;6.20;0.50;;;;;;;;;;6274257;28;20057;-66
2022/09/17 07:54:49;;;;;;;12.25;1.65;;;;;;;;;;6274341;28;20292;-67
2022/09/17 07:57:52;;;;;;;5.05;0.45;;;;;;;;;;6280171;28;20057;-65
2022/09/17 08:00:54;;;;;;;4.38;0.50;;;;;;;;;;6277663;28;20055;-65
2022/09/17 08:03:56;;;;;;;9.00;0.68;;;;;;;;;;6275978;28;20061;-65
2022/09/17 08:06:57;;;;;;;5.97;0.70;;;;;;;;;;6278066;28;20340;-65
2022/09/17 08:10:00;;;;;;;2.42;0.50;;;;;;;;;;6276945;28;20063;-65
2022/09/17 08:13:02;;;;;;;7.65;0.75;;;;;;;;;;6276798;28;20067;-64
2022/09/17 08:16:06;;;;;;;5.28;0.40;;;;;;;;;;6276133;28;20060;-65
2022/09/17 08:19:09;;;;;;;2.40;0.30;;;;;;;;;;6276930;28;20095;-64
2022/09/17 08:22:11;;;;;;;5.28;0.60;;;;;;;;;;6279118;28;20379;-63
2022/09/17 08:25:14;;;;;;;2.45;0.40;;;;;;;;;;6277474;28;20053;-64
2022/09/17 08:28:15;;;;;;;3.55;0.40;;;;;;;;;;6278950;28;20051;-66
2022/09/17 08:31:18;;;;;;;3.72;0.60;;;;;;;;;;6279036;28;20342;-63
2022/09/17 08:34:20;;;;;;;4.60;0.80;;;;;;;;;;6280655;28;20045;-65
2022/09/17 08:37:22;;;;;;;4.78;0.90;;;;;;;;;;6282282;28;20056;-68
2022/09/17 08:40:27;;;;;;;2.28;0.90;;;;;;;;;;6274307;28;20283;-65
2022/09/17 08:43:30;;;;;;;0.82;0.65;;;;;;;;;;6281743;28;20049;-64
2022/09/17 08:46:33;;;;;;;3.20;1.00;;;;;;;;;;6281018;28;20118;-64
2022/09/17 08:49:36;;;;;;;3.13;0.88;;;;;;;;;;6285023;28;20041;-64
2022/09/17 08:52:53;;;;;;;4.15;0.68;;;;;;;;;;6284250;28;20060;-65
2022/09/17 08:56:00;;;;;;;3.85;0.85;;;;;;;;;;6279093;28;20053;-63
2022/09/17 08:59:08;;;;;;;2.30;0.90;;;;;;;;;;6277280;28;20083;-64
2022/09/17 09:02:17;;;;;;;2.10;0.80;;;;;;;;;;6275720;28;20065;-66
2022/09/17 09:05:21;;;;;;;3.08;1.00;;;;;;;;;;6277661;28;20056;-65
2022/09/17 09:08:29;;;;;;;4.55;1.20;;;;;;;;;;6277212;28;20075;-64
2022/09/17 09:11:33;;;;;;;4.05;1.02;;;;;;;;;;6276511;28;20080;-69
2022/09/17 09:14:38;;;;;;;1.42;0.90;;;;;;;;;;6274679;28;20048;-64
2022/09/17 09:17:42;;;;;;;4.07;1.00;;;;;;;;;;6277370;28;20049;-64
2022/09/17 09:20:50;;;;;;;2.45;0.90;;;;;;;;;;6276339;28;20053;-65
2022/09/17 09:23:57;;;;;;;1.83;0.93;;;;;;;;;;6282125;28;20056;-64
2022/09/17 09:27:04;;;;;;;1.88;0.77;;;;;;;;;;6278280;28;20052;-64
2022/09/17 09:30:09;;;;;;;3.28;1.02;;;;;;;;;;6277275;28;20099;-67
2022/09/17 09:33:14;;;;;;;1.70;0.95;;;;;;;;;;6278966;28;20056;-68
2022/09/17 09:36:20;;;;;;;1.27;0.80;;;;;;;;;;6282700;28;20106;-65
2022/09/17 09:39:24;;;;;;;1.48;0.70;;;;;;;;;;6274091;28;20048;-63
2022/09/17 09:42:31;;;;;;;1.25;0.65;;;;;;;;;;6276592;28;20061;-63
2022/09/17 09:45:45;;;;;;;2.25;0.50;;;;;;;;;;6274953;28;20079;-63
2022/09/17 09:48:53;;;;;;;1.58;0.55;;;;;;;;;;6276069;28;20060;-63
2022/09/17 09:52:04;;;;;;;0.80;0.60;;;;;;;;;;6279891;28;20048;-65
2022/09/17 09:55:21;;;;;;;2.88;0.60;;;;;;;;;;6279676;28;20048;-65
2022/09/17 09:58:30;;;;;;;6.70;1.13;;;;;;;;;;6276717;28;20227;-66
2022/09/17 10:01:34;;;;;;;0.80;0.47;;;;;;;;;;6281172;28;20056;-62
2022/09/17 10:04:35;;;;;;;2.22;0.60;;;;;;;;;;6276161;28;20057;-63
2022/09/17 10:07:43;;;;;;;2.15;0.55;;;;;;;;;;6277482;28;20044;-66
2022/09/17 10:10:58;;;;;;;3.05;0.50;;;;;;;;;;6275938;28;20053;-64
2022/09/17 10:14:14;;;;;;;2.38;0.60;;;;;;;;;;6278167;28;20281;-66
2022/09/17 10:17:19;;;;;;;0.82;0.57;;;;;;;;;;6278509;28;20049;-67
2022/09/17 10:20:21;;;;;;;1.30;0.65;;;;;;;;;;6282609;28;20064;-65
2022/09/17 10:23:24;;;;;;;1.95;0.80;;;;;;;;;;6285333;28;20041;-67
2022/09/17 10:26:27;;;;;;;2.28;0.93;;;;;;;;;;6278170;28;20055;-65
2022/09/17 10:29:31;;;;;;;1.77;0.90;;;;;;;;;;6284232;28;20090;-66
2022/09/17 10:32:32;;;;;;;1.20;0.70;;;;;;;;;;6274914;28;20052;-66
2022/09/17 10:35:34;;;;;;;1.05;0.70;;;;;;;;;;6275869;28;20396;-66
2022/09/17 10:38:38;;;;;;;4.03;1.35;;;;;;;;;;6272872;28;20045;-69
2022/09/17 10:41:53;;;;;;;2.53;0.70;;;;;;;;;;6277168;28;20236;-63
2022/09/17 10:44:59;;;;;;;2.80;0.60;;;;;;;;;;6275387;28;20110;-67
2022/09/17 10:48:01;;;;;;;3.53;0.70;;;;;;;;;;6277760;28;20680;-64
2022/09/17 10:51:05;;;;;;;1.25;0.70;;;;;;;;;;6272517;28;20106;-65
2022/09/17 10:54:25;;;;;;;1.05;0.70;;;;;;;;;;6278691;28;20362;-65
2022/09/17 10:57:37;;;;;;;1.40;0.50;;;;;;;;;;6276507;28;20728;-63
2022/09/17 11:00:48;;;;;;;1.27;0.45;;;;;;;;;;6278903;28;20044;-68
2022/09/17 11:04:21;;;;;;;2.17;0.45;;;;;;;;;;6278096;28;20037;-66
2022/09/17 11:07:34;;;;;;;0.90;0.40;;;;;;;;;;6181895;28;20121;-66
2022/09/17 11:10:40;;;;;;;0.82;0.47;;;;;;;;;;6178420;28;20065;-64
2022/09/17 11:13:51;;;;;;;3.15;1.40;;;;;;;;;;6178290;28;20059;-65
2022/09/17 11:17:00;;;;;;;1.67;0.60;;;;;;;;;;6169853;28;20245;-65
2022/09/17 11:20:04;;;;;;;0.70;0.50;;;;;;;;;;6174697;28;20066;-63
2022/09/17 11:23:22;;;;;;;0.52;0.45;;;;;;;;;;6179846;28;20318;-64
2022/09/17 11:26:31;;;;;;;3.22;0.60;;;;;;;;;;6173965;28;20058;-63
2022/09/17 11:29:43;;;;;;;1.98;0.60;;;;;;;;;;6175308;28;20054;-62
2022/09/17 11:33:03;;;;;;;1.80;0.55;;;;;;;;;;6183884;28;20047;-64
2022/09/17 11:36:12;;;;;;;2.22;0.60;;;;;;;;;;6177332;28;20054;-66
2022/09/17 11:39:17;;;;;;;1.75;0.55;;;;;;;;;;6181438;28;20342;-68
2022/09/17 11:42:22;;;;;;;1.15;0.50;;;;;;;;;;6209321;28;20056;-69
2022/09/17 11:45:27;;;;;;;5.22;0.63;;;;;;;;;;6257894;28;20329;-66
2022/09/17 11:48:36;;;;;;;1.20;0.50;;;;;;;;;;6257602;28;20217;-67
2022/09/17 11:51:40;;;;;;;1.63;0.40;;;;;;;;;;6273603;28;20068;-66
2022/09/17 11:54:47;;;;;;;0.60;0.50;;;;;;;;;;6256083;28;20050;-68
2022/09/17 11:57:51;;;;;;;0.40;0.30;;;;;;;;;;6260805;28;20050;-63
2022/09/17 12:01:01;;;;;;;2.55;0.70;;;;;;;;;;6257204;28;20053;-63
2022/09/17 12:04:19;;;;;;;2.67;0.60;;;;;;;;;;6253427;28;20041;-64
2022/09/17 12:07:32;;;;;;;0.40;0.40;;;;;;;;;;6258379;28;20053;-66
2022/09/17 12:10:42;;;;;;;0.65;0.50;;;;;;;;;;6259613;28;20390;-64
2022/09/17 12:13:47;;;;;;;0.38;0.35;;;;;;;;;;6276301;28;20057;-64
2022/09/17 12:16:51;;;;;;;1.52;0.75;;;;;;;;;;6253379;28;20064;-64
2022/09/17 12:19:57;;;;;;;0.65;0.40;;;;;;;;;;6250951;28;20378;-64
2022/09/17 12:23:02;;;;;;;0.40;0.38;;;;;;;;;;6255777;28;20053;-64
2022/09/17 12:26:14;;;;;;;1.08;0.40;;;;;;;;;;6270020;28;20064;-63
2022/09/17 12:29:36;;;;;;;0.57;0.40;;;;;;;;;;6259516;28;20045;-64
2022/09/17 12:32:48;;;;;;;1.63;0.50;;;;;;;;;;6261049;28;20124;-64
2022/09/17 12:36:18;;;;;;;1.33;0.40;;;;;;;;;;6254514;28;20049;-63
2022/09/17 12:39:46;;;;;;;1.58;0.40;;;;;;;;;;6278104;28;20053;-65
2022/09/17 12:43:01;;;;;;;1.75;0.50;;;;;;;;;;6261092;28;20057;-64
2022/09/17 12:46:13;;;;;;;0.40;0.40;;;;;;;;;;6258017;28;20117;-64
2022/09/17 12:49:25;;;;;;;1.17;0.32;;;;;;;;;;6257006;28;20056;-64
2022/09/17 12:52:36;;;;;;;0.93;0.50;;;;;;;;;;6272958;28;20102;-64
2022/09/17 12:56:00;;;;;;;0.68;0.50;;;;;;;;;;6277507;28;20052;-64
2022/09/17 12:59:07;;;;;;;1.02;0.50;;;;;;;;;;6274225;28;20044;-64
2022/09/17 13:02:15;;;;;;;0.63;0.40;;;;;;;;;;6282980;28;20041;-63
2022/09/17 13:05:48;;;;;;;1.05;0.50;;;;;;;;;;6280215;28;20056;-63
2022/09/17 13:09:32;;;;;;;1.35;0.55;;;;;;;;;;6275078;28;20291;-64
2022/09/17 13:12:38;;;;;;;2.65;0.50;;;;;;;;;;6200475;28;20062;-64
2022/09/17 13:15:47;;;;;;;1.02;0.57;;;;;;;;;;6196511;28;20121;-64
2022/09/17 13:19:00;;;;;;;0.30;0.30;;;;;;;;;;6195739;28;20093;-64
2022/09/17 13:22:06;;;;;;;2.00;0.43;;;;;;;;;;6199186;28;20066;-64
2022/09/17 13:25:12;;;;;;;0.40;0.32;;;;;;;;;;6196502;28;20054;-65
2022/09/17 13:28:13;;;;;;;2.75;0.50;;;;;;;;;;6186013;28;20105;-64
2022/09/17 13:31:20;;;;;;;1.70;0.63;;;;;;;;;;6171795;28;20091;-65
2022/09/17 13:34:30;;;;;;;1.25;0.40;;;;;;;;;;6177435;28;20154;-64
2022/09/17 13:37:33;;;;;;;2.28;0.60;;;;;;;;;;6176344;28;20290;-64
2022/09/17 13:40:36;;;;;;;0.50;0.40;;;;;;;;;;6174713;28;20046;-65
2022/09/17 13:43:45;;;;;;;1.63;0.50;;;;;;;;;;6225024;28;20052;-64
2022/09/17 13:46:47;;;;;;;0.90;0.40;;;;;;;;;;6250177;28;20384;-67
2022/09/17 13:49:51;;;;;;;1.83;0.55;;;;;;;;;;6248984;28;20045;-65
2022/09/17 13:52:54;;;;;;;3.35;0.60;;;;;;;;;;6254338;28;20327;-64
2022/09/17 13:55:58;;;;;;;;;;;;;;;;;;6264251;28;20044;-65
2022/09/17 13:59:05;;;;;;;346.98;26.63;;;;;;;;;;6253504;28;19993;-77
2022/09/17 14:02:38;;;;;;;22.67;2.08;;;;;;;;;;6249354;28;20045;-73
2022/09/17 14:05:39;;;;;;;2.70;0.77;;;;;;;;;;6276403;28;20049;-73
2022/09/17 14:08:48;;;;;;;3.97;0.53;;;;;;;;;;6274159;28;20045;-67
2022/09/17 14:13:58;;;;;;;1.95;0.52;;;;;;;;;;6312694;27;20640;-63
2022/09/17 14:16:59;;;;;;;0.70;0.50;;;;;;;;;;6315802;28;20040;-63
2022/09/17 14:20:02;;;;;;;2.28;0.47;;;;;;;;;;6338668;27;20047;-70
2022/09/17 14:23:04;;;;;;;1.75;0.40;;;;;;;;;;6337887;28;20047;-75
2022/09/17 14:26:08;;;;;;;9.23;0.80;;;;;;;;;;6336855;27;20070;-73
2022/09/17 14:29:20;;;;;;;4.68;0.60;;;;;;;;;;6337307;27;20052;-73
2022/09/17 14:32:32;;;;;;;0.45;0.40;;;;;;;;;;6336229;27;20059;-75
2022/09/17 14:35:36;;;;;;;1.17;0.40;;;;;;;;;;6338576;28;20056;-76
2022/09/17 14:38:43;;;;;;;2.38;0.40;;;;;;;;;;6337808;27;20279;-74
2022/09/17 14:41:45;;;;;;;3.80;0.57;;;;;;;;;;6336442;27;20098;-75
2022/09/17 14:44:54;;;;;;;1.13;0.70;;;;;;;;;;6337818;27;20123;-74
2022/09/17 14:48:19;;;;;;;1.20;0.50;;;;;;;;;;6338621;28;20056;-73
2022/09/17 14:51:29;;;;;;;0.63;0.40;;;;;;;;;;6336443;27;20106;-73
2022/09/17 14:54:31;;;;;;;1.63;0.40;;;;;;;;;;6335183;28;20231;-71
2022/09/17 14:57:33;;;;;;;1.77;0.40;;;;;;;;;;6337695;28;20048;-72
2022/09/17 15:00:37;;;;;;;4.75;0.60;;;;;;;;;;6332679;27;20126;-73
2022/09/17 15:03:39;;;;;;;4.30;0.93;;;;;;;;;;6335003;28;20110;-69
2022/09/17 15:06:41;;;;;;;1.25;0.40;;;;;;;;;;6333640;27;20148;-68
2022/09/17 15:09:43;;;;;;;0.50;0.40;;;;;;;;;;6336420;27;20101;-73
2022/09/17 15:12:45;;;;;;;2.15;0.40;;;;;;;;;;6336065;27;20335;-74
2022/09/17 15:15:58;;;;;;;4.27;0.40;;;;;;;;;;6335533;27;20097;-70
2022/09/17 15:19:00;;;;;;;3.45;0.50;;;;;;;;;;6335224;27;20071;-71
2022/09/17 15:22:05;;;;;;;5.18;0.40;;;;;;;;;;6336608;28;20063;-72
2022/09/17 15:25:09;;;;;;;0.40;0.30;;;;;;;;;;6321900;28;20081;-73
2022/09/17 15:28:20;;;;;;;1.13;0.40;;;;;;;;;;6317224;27;20055;-72
2022/09/17 15:31:29;;;;;;;3.28;0.50;;;;;;;;;;6315538;28;20114;-70
2022/09/17 15:34:30;;;;;;;2.17;0.52;;;;;;;;;;6321935;28;20678;-73
2022/09/17 15:37:32;;;;;;;1.42;0.30;;;;;;;;;;6316652;28;20063;-73
2022/09/17 15:40:36;;;;;;;2.70;0.55;;;;;;;;;;6317279;28;20354;-74
2022/09/17 15:43:40;;;;;;;11.55;1.00;;;;;;;;;;6320109;28;20087;-72
2022/09/17 15:46:43;;;;;;;1.95;0.30;;;;;;;;;;6320488;28;20063;-74
2022/09/17 15:50:06;;;;;;;3.30;0.52;;;;;;;;;;6315754;28;20101;-73
2022/09/17 15:53:20;;;;;;;3.10;0.40;;;;;;;;;;6316177;28;20048;-74
2022/09/17 15:56:24;;;;;;;1.30;0.47;;;;;;;;;;6316403;28;20044;-74
2022/09/17 15:59:28;;;;;;;0.68;0.30;;;;;;;;;;6316188;27;20056;-73
2022/09/17 16:02:32;;;;;;;0.30;0.30;;;;;;;;;;6313510;28;20048;-74
2022/09/17 16:05:45;;;;;;;1.30;0.47;;;;;;;;;;6316855;28;20107;-73
2022/09/17 16:08:48;;;;;;;7.47;1.17;;;;;;;;;;6318799;28;20044;-73
2022/09/17 16:11:49;;;;;;;10.57;0.85;;;;;;;;;;6315191;28;20138;-74
2022/09/17 16:14:53;;;;;;;4.40;0.70;;;;;;;;;;6316305;28;20048;-74
2022/09/17 16:17:55;;;;;;;3.72;0.60;;;;;;;;;;6313151;28;20071;-72
2022/09/17 16:20:57;;;;;;;5.03;0.90;;;;;;;;;;6317120;28;20106;-73
2022/09/17 16:23:59;;;;;;;1.63;0.70;;;;;;;;;;6315455;28;20246;-72
2022/09/17 16:27:00;;;;;;;6.45;0.60;;;;;;;;;;6313644;28;20057;-72
2022/09/17 16:30:05;;;;;;;4.20;0.60;;;;;;;;;;6318824;28;20044;-73
2022/09/17 16:33:10;;;;;;;1.25;0.40;;;;;;;;;;6315056;28;20056;-72
2022/09/17 16:36:12;;;;;;;4.18;0.40;;;;;;;;;;6319160;28;20055;-72
2022/09/17 16:39:14;;;;;;;3.60;0.60;;;;;;;;;;6316362;28;20048;-72
2022/09/17 16:42:15;;;;;;;1.75;0.60;;;;;;;;;;6318837;28;20056;-72
2022/09/17 16:45:17;;;;;;;2.40;0.80;;;;;;;;;;6314266;28;20227;-72
2022/09/17 16:48:20;;;;;;;0.80;0.50;;;;;;;;;;6316461;28;20044;-73
2022/09/17 16:51:22;;;;;;;4.38;0.30;;;;;;;;;;6317797;28;20051;-73
2022/09/17 16:54:23;;;;;;;2.75;0.70;;;;;;;;;;6316677;28;20446;-73
2022/09/17 16:57:25;;;;;;;2.05;0.50;;;;;;;;;;6316885;28;20236;-72
2022/09/17 17:00:28;;;;;;;0.93;0.50;;;;;;;;;;6312215;28;20064;-72
2022/09/17 17:03:31;;;;;;;4.43;0.77;;;;;;;;;;6315456;28;20052;-74
2022/09/17 17:06:32;;;;;;;5.63;0.50;;;;;;;;;;6316410;28;20053;-72
2022/09/17 17:09:34;;;;;;;1.13;0.60;;;;;;;;;;6315980;28;20052;-75
2022/09/17 17:12:37;;;;;;;0.40;0.35;;;;;;;;;;6315358;28;20059;-74
2022/09/17 17:15:40;;;;;;;1.98;0.50;;;;;;;;;;6316440;28;20114;-74
2022/09/17 17:18:44;;;;;;;1.15;0.43;;;;;;;;;;6318985;28;20093;-73
2022/09/17 17:21:46;;;;;;;1.08;0.40;;;;;;;;;;6319912;28;20043;-74
2022/09/17 17:24:48;;;;;;;1.08;0.50;;;;;;;;;;6318495;28;20089;-73
2022/09/17 17:27:49;;;;;;;0.93;0.57;;;;;;;;;;6321608;28;20044;-80
2022/09/17 17:30:51;;;;;;;0.50;0.30;;;;;;;;;;6317487;28;20060;-74
2022/09/17 17:33:54;;;;;;;1.52;0.50;;;;;;;;;;6315091;28;20304;-74
2022/09/17 17:36:56;;;;;;;2.35;0.50;;;;;;;;;;6317731;28;20117;-76
2022/09/17 17:39:57;;;;;;;0.90;0.30;;;;;;;;;;6323650;28;20059;-74
2022/09/17 17:42:59;;;;;;;3.30;0.50;;;;;;;;;;6317105;28;20047;-73
2022/09/17 17:46:01;;;;;;;1.42;0.50;;;;;;;;;;6318335;28;20052;-75
2022/09/17 17:49:04;;;;;;;1.17;0.32;;;;;;;;;;6317007;28;20052;-77
2022/09/17 17:52:06;;;;;;;3.58;0.40;;;;;;;;;;6316242;28;20048;-73
2022/09/17 17:55:08;;;;;;;1.73;0.85;;;;;;;;;;6317736;28;20067;-71
2022/09/17 17:58:10;;;;;;;4.45;0.80;;;;;;;;;;6315405;28;20051;-72
2022/09/17 18:01:13;;;;;;;1.92;0.70;;;;;;;;;;6314213;28;20044;-71
2022/09/17 18:04:16;;;;;;;4.35;0.80;;;;;;;;;;6318542;28;20346;-73
2022/09/17 18:07:18;;;;;;;5.30;0.80;;;;;;;;;;6320597;28;20058;-72
2022/09/17 18:10:19;;;;;;;9.63;1.10;;;;;;;;;;6319481;28;20052;-71
2022/09/17 18:13:21;;;;;;;4.18;1.05;;;;;;;;;;6319865;28;20101;-71
2022/09/17 18:16:24;;;;;;;3.72;0.80;;;;;;;;;;6322457;28;20044;-71
2022/09/17 18:19:27;;;;;;;6.07;0.80;;;;;;;;;;6319718;28;20177;-73
2022/09/17 18:22:28;;;;;;;3.22;0.75;;;;;;;;;;6318327;28;20049;-72
2022/09/17 18:25:30;;;;;;;6.15;0.50;;;;;;;;;;6319835;28;20051;-75
2022/09/17 18:28:33;;;;;;;11.40;0.90;;;;;;;;;;6319403;28;20346;-74
2022/09/17 18:31:36;;;;;;;5.47;0.70;;;;;;;;;;6323491;28;20331;-77
2022/09/17 18:34:41;;;;;;;13.00;1.30;;;;;;;;;;6322928;28;20330;-77